Pagina principale
METAR-TAF:

METAR-TAF

Aeroporti :

Emmen, Svizzera

latitudine: 47-05-32N, longitudine: 8-18-16E, altezza: 426 m

Osservazione

Il bollettino è stato emesso 53 minuti fa, alle 19:50 UTC
Vento 8 kt da nord/nord-ovest, variando fra nord-ovest e nord/nord-est
Temperature 16°C
Umidità 68%
Pressione 1013 hPa
Visibilità 10 km o più
Poco nuvoloso ad un'altezza di 3900 ft
Nubi sparse ad un'altezza di 5100 ft
Nuvoloso ad un'altezza di 6500 ft

METAR: LSME 251950Z AUTO 34008KT 310V020 9999NDV FEW039 SCT051 BKN065 16/10 Q1013 RMK

Ora: 22:43 (20:43 UTC)


TAF: mancante

Osservazioni e previsioni meteorologiche di più di 4000 aeroporti (messaggi METAR e TAF).

Le stazioni disponibili sono rappresentate dai dischi gialli e rossi sulla carta.

Puntare il mouse per vedere il nome della stazione.

Clicca sopra per visualizzare le osservazioni e previsioni meteorologiche.

Per cambiare la mappa : fare clic sui pulsanti verdi con una croce nera per ingrandire, il pulsante verde con un trattino per diminuire, o sulla freccia verde per le mappe adiacenti.


METAR-TAF: